sensor_id;sensor_type;location;lat;lon;timestamp;temperature;humidity
9389;DHT22;4734;52.778;6.798;2022-12-05T00:01:42;4.60;99.90
9389;DHT22;4734;52.778;6.798;2022-12-05T00:04:44;4.50;99.90
9389;DHT22;4734;52.778;6.798;2022-12-05T00:07:30;4.50;99.90
9389;DHT22;4734;52.778;6.798;2022-12-05T00:10:16;4.60;99.90
9389;DHT22;4734;52.778;6.798;2022-12-05T00:13:01;4.50;99.90
9389;DHT22;4734;52.778;6.798;2022-12-05T00:15:47;4.50;99.90
9389;DHT22;4734;52.778;6.798;2022-12-05T00:18:35;4.60;99.90
9389;DHT22;4734;52.778;6.798;2022-12-05T00:21:23;4.60;99.90
9389;DHT22;4734;52.778;6.798;2022-12-05T00:24:13;4.60;99.90
9389;DHT22;4734;52.778;6.798;2022-12-05T00:26:58;4.60;99.90
9389;DHT22;4734;52.778;6.798;2022-12-05T00:29:46;4.60;99.90
9389;DHT22;4734;52.778;6.798;2022-12-05T00:32:33;4.60;99.90
9389;DHT22;4734;52.778;6.798;2022-12-05T00:35:24;4.60;99.90
9389;DHT22;4734;52.778;6.798;2022-12-05T00:38:10;4.60;99.90
9389;DHT22;4734;52.778;6.798;2022-12-05T00:41:01;4.60;99.90
9389;DHT22;4734;52.778;6.798;2022-12-05T00:43:48;4.60;99.90
9389;DHT22;4734;52.778;6.798;2022-12-05T00:46:36;4.60;99.90
9389;DHT22;4734;52.778;6.798;2022-12-05T00:49:22;4.60;99.90
9389;DHT22;4734;52.778;6.798;2022-12-05T00:52:09;4.70;99.90
9389;DHT22;4734;52.778;6.798;2022-12-05T00:54:55;4.60;99.90
9389;DHT22;4734;52.778;6.798;2022-12-05T00:57:41;4.70;99.90
9389;DHT22;4734;52.778;6.798;2022-12-05T01:00:27;4.70;99.90
9389;DHT22;4734;52.778;6.798;2022-12-05T01:03:14;4.70;99.90
9389;DHT22;4734;52.778;6.798;2022-12-05T01:06:00;4.70;99.90
9389;DHT22;4734;52.778;6.798;2022-12-05T01:08:48;4.70;99.90
9389;DHT22;4734;52.778;6.798;2022-12-05T01:11:34;4.70;99.90
9389;DHT22;4734;52.778;6.798;2022-12-05T01:14:21;4.70;99.90
9389;DHT22;4734;52.778;6.798;2022-12-05T01:17:08;4.70;99.90
9389;DHT22;4734;52.778;6.798;2022-12-05T01:19:54;4.70;99.90
9389;DHT22;4734;52.778;6.798;2022-12-05T01:22:39;4.80;99.90
9389;DHT22;4734;52.778;6.798;2022-12-05T01:25:27;4.80;99.90
9389;DHT22;4734;52.778;6.798;2022-12-05T01:28:14;4.70;99.90
9389;DHT22;4734;52.778;6.798;2022-12-05T01:31:06;4.70;99.90
9389;DHT22;4734;52.778;6.798;2022-12-05T01:33:55;4.80;99.90
9389;DHT22;4734;52.778;6.798;2022-12-05T01:36:41;4.80;99.90
9389;DHT22;4734;52.778;6.798;2022-12-05T01:39:27;4.80;99.90
9389;DHT22;4734;52.778;6.798;2022-12-05T01:42:15;4.70;99.90
9389;DHT22;4734;52.778;6.798;2022-12-05T01:45:08;4.80;99.90
9389;DHT22;4734;52.778;6.798;2022-12-05T01:47:57;4.80;99.90
9389;DHT22;4734;52.778;6.798;2022-12-05T01:50:43;4.80;99.90
9389;DHT22;4734;52.778;6.798;2022-12-05T01:53:29;4.80;99.90
9389;DHT22;4734;52.778;6.798;2022-12-05T01:56:17;4.80;99.90
9389;DHT22;4734;52.778;6.798;2022-12-05T01:59:06;4.90;99.90
9389;DHT22;4734;52.778;6.798;2022-12-05T02:01:54;4.80;99.90
9389;DHT22;4734;52.778;6.798;2022-12-05T02:04:44;4.90;99.90
9389;DHT22;4734;52.778;6.798;2022-12-05T02:07:31;4.80;99.90
9389;DHT22;4734;52.778;6.798;2022-12-05T02:10:18;4.80;99.90
9389;DHT22;4734;52.778;6.798;2022-12-05T02:13:19;4.80;99.90
9389;DHT22;4734;52.778;6.798;2022-12-05T02:16:14;4.80;99.90
9389;DHT22;4734;52.778;6.798;2022-12-05T02:19:15;4.90;99.90
9389;DHT22;4734;52.778;6.798;2022-12-05T02:32:30;4.80;99.90
9389;DHT22;4734;52.778;6.798;2022-12-05T02:35:32;4.90;99.90
9389;DHT22;4734;52.778;6.798;2022-12-05T02:38:26;4.90;99.90
9389;DHT22;4734;52.778;6.798;2022-12-05T02:41:18;4.90;99.90
9389;DHT22;4734;52.778;6.798;2022-12-05T02:44:12;4.90;99.90
9389;DHT22;4734;52.778;6.798;2022-12-05T02:46:59;4.90;99.90
9389;DHT22;4734;52.778;6.798;2022-12-05T02:49:47;4.90;99.90
9389;DHT22;4734;52.778;6.798;2022-12-05T02:52:36;4.90;99.90
9389;DHT22;4734;52.778;6.798;2022-12-05T02:55:25;4.90;99.90
9389;DHT22;4734;52.778;6.798;2022-12-05T02:58:15;4.90;99.90
9389;DHT22;4734;52.778;6.798;2022-12-05T03:01:06;4.90;99.90
9389;DHT22;4734;52.778;6.798;2022-12-05T03:03:53;4.90;99.90
9389;DHT22;4734;52.778;6.798;2022-12-05T03:06:43;4.90;99.90
9389;DHT22;4734;52.778;6.798;2022-12-05T03:09:34;4.90;99.90
9389;DHT22;4734;52.778;6.798;2022-12-05T03:12:23;5.00;99.90
9389;DHT22;4734;52.778;6.798;2022-12-05T03:15:18;4.90;99.90
9389;DHT22;4734;52.778;6.798;2022-12-05T03:18:08;4.90;99.90
9389;DHT22;4734;52.778;6.798;2022-12-05T03:20:59;5.00;99.90
9389;DHT22;4734;52.778;6.798;2022-12-05T03:23:50;5.00;99.90
9389;DHT22;4734;52.778;6.798;2022-12-05T03:26:41;5.00;99.90
9389;DHT22;4734;52.778;6.798;2022-12-05T03:29:33;4.90;99.90
9389;DHT22;4734;52.778;6.798;2022-12-05T03:32:27;5.00;99.90
9389;DHT22;4734;52.778;6.798;2022-12-05T03:35:19;5.00;99.90
9389;DHT22;4734;52.778;6.798;2022-12-05T03:38:11;5.00;99.90
9389;DHT22;4734;52.778;6.798;2022-12-05T03:41:06;5.00;99.90
9389;DHT22;4734;52.778;6.798;2022-12-05T03:43:55;5.00;99.90
9389;DHT22;4734;52.778;6.798;2022-12-05T03:46:45;5.10;99.90
9389;DHT22;4734;52.778;6.798;2022-12-05T03:49:35;5.00;99.90
9389;DHT22;4734;52.778;6.798;2022-12-05T03:52:26;5.00;99.90
9389;DHT22;4734;52.778;6.798;2022-12-05T03:55:14;5.00;99.90
9389;DHT22;4734;52.778;6.798;2022-12-05T03:58:06;5.00;99.90
9389;DHT22;4734;52.778;6.798;2022-12-05T04:00:53;5.00;99.90
9389;DHT22;4734;52.778;6.798;2022-12-05T04:03:45;5.00;99.90
9389;DHT22;4734;52.778;6.798;2022-12-05T04:06:37;5.00;99.90
9389;DHT22;4734;52.778;6.798;2022-12-05T04:09:25;5.10;99.90
9389;DHT22;4734;52.778;6.798;2022-12-05T04:12:18;5.10;99.90
9389;DHT22;4734;52.778;6.798;2022-12-05T04:15:13;5.10;99.90
9389;DHT22;4734;52.778;6.798;2022-12-05T04:18:02;5.10;99.90
9389;DHT22;4734;52.778;6.798;2022-12-05T04:20:49;5.10;99.90
9389;DHT22;4734;52.778;6.798;2022-12-05T04:23:53;5.10;99.90
9389;DHT22;4734;52.778;6.798;2022-12-05T04:27:03;5.10;99.90
9389;DHT22;4734;52.778;6.798;2022-12-05T04:29:56;5.10;99.90
9389;DHT22;4734;52.778;6.798;2022-12-05T04:32:50;5.10;99.90
9389;DHT22;4734;52.778;6.798;2022-12-05T04:35:41;5.20;99.90
9389;DHT22;4734;52.778;6.798;2022-12-05T04:38:31;5.20;99.90
9389;DHT22;4734;52.778;6.798;2022-12-05T04:41:23;5.20;99.90
9389;DHT22;4734;52.778;6.798;2022-12-05T04:44:13;5.20;99.90
9389;DHT22;4734;52.778;6.798;2022-12-05T04:47:03;5.20;99.90
9389;DHT22;4734;52.778;6.798;2022-12-05T04:49:52;5.20;99.90
9389;DHT22;4734;52.778;6.798;2022-12-05T04:52:38;5.20;99.90
9389;DHT22;4734;52.778;6.798;2022-12-05T04:55:29;5.20;99.90
9389;DHT22;4734;52.778;6.798;2022-12-05T04:58:18;5.20;99.90
9389;DHT22;4734;52.778;6.798;2022-12-05T05:01:08;5.20;99.90
9389;DHT22;4734;52.778;6.798;2022-12-05T05:03:58;5.20;99.90
9389;DHT22;4734;52.778;6.798;2022-12-05T05:06:51;5.20;99.90
9389;DHT22;4734;52.778;6.798;2022-12-05T05:09:38;5.30;99.90
9389;DHT22;4734;52.778;6.798;2022-12-05T05:12:24;5.30;99.90
9389;DHT22;4734;52.778;6.798;2022-12-05T05:15:11;5.30;99.90
9389;DHT22;4734;52.778;6.798;2022-12-05T05:17:57;5.30;99.90
9389;DHT22;4734;52.778;6.798;2022-12-05T05:20:42;5.30;99.90
9389;DHT22;4734;52.778;6.798;2022-12-05T05:23:30;5.40;99.90
9389;DHT22;4734;52.778;6.798;2022-12-05T05:26:16;5.30;99.90
9389;DHT22;4734;52.778;6.798;2022-12-05T05:29:03;5.30;99.90
9389;DHT22;4734;52.778;6.798;2022-12-05T05:31:48;5.30;99.90
9389;DHT22;4734;52.778;6.798;2022-12-05T05:34:34;5.30;99.90
9389;DHT22;4734;52.778;6.798;2022-12-05T05:37:20;5.30;99.90
9389;DHT22;4734;52.778;6.798;2022-12-05T05:40:09;5.30;99.90
9389;DHT22;4734;52.778;6.798;2022-12-05T05:42:55;5.40;99.90
9389;DHT22;4734;52.778;6.798;2022-12-05T05:45:41;5.40;99.90
9389;DHT22;4734;52.778;6.798;2022-12-05T05:48:27;5.40;99.90
9389;DHT22;4734;52.778;6.798;2022-12-05T05:51:14;5.40;99.90
9389;DHT22;4734;52.778;6.798;2022-12-05T05:54:00;5.40;99.90
9389;DHT22;4734;52.778;6.798;2022-12-05T05:56:48;5.40;99.90
9389;DHT22;4734;52.778;6.798;2022-12-05T05:59:34;5.40;99.90
9389;DHT22;4734;52.778;6.798;2022-12-05T06:02:19;5.40;99.90
9389;DHT22;4734;52.778;6.798;2022-12-05T06:05:06;5.40;99.90
9389;DHT22;4734;52.778;6.798;2022-12-05T06:07:52;5.40;99.90
9389;DHT22;4734;52.778;6.798;2022-12-05T06:10:38;5.40;99.90
9389;DHT22;4734;52.778;6.798;2022-12-05T06:13:26;5.40;99.90
9389;DHT22;4734;52.778;6.798;2022-12-05T06:16:14;5.50;99.90
9389;DHT22;4734;52.778;6.798;2022-12-05T06:19:00;5.50;99.90
9389;DHT22;4734;52.778;6.798;2022-12-05T06:21:48;5.40;99.90
9389;DHT22;4734;52.778;6.798;2022-12-05T06:24:36;5.50;99.90
9389;DHT22;4734;52.778;6.798;2022-12-05T06:27:22;5.40;99.90
9389;DHT22;4734;52.778;6.798;2022-12-05T06:30:10;5.50;99.90
9389;DHT22;4734;52.778;6.798;2022-12-05T06:32:56;5.40;99.90
9389;DHT22;4734;52.778;6.798;2022-12-05T06:35:45;5.40;99.90
9389;DHT22;4734;52.778;6.798;2022-12-05T06:38:31;5.50;99.90
9389;DHT22;4734;52.778;6.798;2022-12-05T06:41:19;5.50;99.90
9389;DHT22;4734;52.778;6.798;2022-12-05T06:44:04;5.50;99.90
9389;DHT22;4734;52.778;6.798;2022-12-05T06:46:54;5.40;99.90
9389;DHT22;4734;52.778;6.798;2022-12-05T06:49:42;5.50;99.90
9389;DHT22;4734;52.778;6.798;2022-12-05T06:52:29;5.50;99.90
9389;DHT22;4734;52.778;6.798;2022-12-05T06:55:14;5.50;99.90
9389;DHT22;4734;52.778;6.798;2022-12-05T06:58:00;5.50;99.90
9389;DHT22;4734;52.778;6.798;2022-12-05T07:00:45;5.50;99.90
9389;DHT22;4734;52.778;6.798;2022-12-05T07:03:50;5.50;99.90
9389;DHT22;4734;52.778;6.798;2022-12-05T07:06:37;5.50;99.90
9389;DHT22;4734;52.778;6.798;2022-12-05T07:09:24;5.60;99.90
9389;DHT22;4734;52.778;6.798;2022-12-05T07:12:31;5.60;99.90
9389;DHT22;4734;52.778;6.798;2022-12-05T07:15:17;5.60;99.90
9389;DHT22;4734;52.778;6.798;2022-12-05T07:18:03;5.50;99.90
9389;DHT22;4734;52.778;6.798;2022-12-05T07:20:57;5.50;99.90
9389;DHT22;4734;52.778;6.798;2022-12-05T07:23:44;5.50;99.90
9389;DHT22;4734;52.778;6.798;2022-12-05T07:26:30;5.60;99.90
9389;DHT22;4734;52.778;6.798;2022-12-05T07:29:16;5.60;99.90
9389;DHT22;4734;52.778;6.798;2022-12-05T07:32:02;5.50;99.90
9389;DHT22;4734;52.778;6.798;2022-12-05T07:34:51;5.60;99.90
9389;DHT22;4734;52.778;6.798;2022-12-05T07:37:38;5.60;99.90
9389;DHT22;4734;52.778;6.798;2022-12-05T07:40:24;5.60;99.90
9389;DHT22;4734;52.778;6.798;2022-12-05T07:43:10;5.60;99.90
9389;DHT22;4734;52.778;6.798;2022-12-05T07:46:00;5.60;99.90
9389;DHT22;4734;52.778;6.798;2022-12-05T07:48:47;5.60;99.90
9389;DHT22;4734;52.778;6.798;2022-12-05T07:51:33;5.60;99.90
9389;DHT22;4734;52.778;6.798;2022-12-05T07:54:21;5.60;99.90
9389;DHT22;4734;52.778;6.798;2022-12-05T07:57:07;5.60;99.90
9389;DHT22;4734;52.778;6.798;2022-12-05T07:59:52;5.60;99.90
9389;DHT22;4734;52.778;6.798;2022-12-05T08:02:38;5.50;99.90
9389;DHT22;4734;52.778;6.798;2022-12-05T08:05:24;5.60;99.90
9389;DHT22;4734;52.778;6.798;2022-12-05T08:08:09;5.60;99.90
9389;DHT22;4734;52.778;6.798;2022-12-05T08:11:02;5.60;99.90
9389;DHT22;4734;52.778;6.798;2022-12-05T08:13:48;5.60;99.90
9389;DHT22;4734;52.778;6.798;2022-12-05T08:16:34;5.60;99.90
9389;DHT22;4734;52.778;6.798;2022-12-05T08:19:20;5.60;99.90
9389;DHT22;4734;52.778;6.798;2022-12-05T08:22:06;5.60;99.90
9389;DHT22;4734;52.778;6.798;2022-12-05T08:24:51;5.60;99.90
9389;DHT22;4734;52.778;6.798;2022-12-05T08:27:39;5.60;99.90
9389;DHT22;4734;52.778;6.798;2022-12-05T08:30:25;5.60;99.90
9389;DHT22;4734;52.778;6.798;2022-12-05T08:33:11;5.60;99.90
9389;DHT22;4734;52.778;6.798;2022-12-05T08:35:59;5.60;99.90
9389;DHT22;4734;52.778;6.798;2022-12-05T08:38:46;5.60;99.90
9389;DHT22;4734;52.778;6.798;2022-12-05T08:41:32;5.60;99.90
9389;DHT22;4734;52.778;6.798;2022-12-05T08:44:19;5.60;99.90
9389;DHT22;4734;52.778;6.798;2022-12-05T08:47:06;5.60;99.90
9389;DHT22;4734;52.778;6.798;2022-12-05T08:49:51;5.60;99.90
9389;DHT22;4734;52.778;6.798;2022-12-05T08:52:37;5.70;99.90
9389;DHT22;4734;52.778;6.798;2022-12-05T08:55:23;5.60;99.90
9389;DHT22;4734;52.778;6.798;2022-12-05T08:58:09;5.60;99.90
9389;DHT22;4734;52.778;6.798;2022-12-05T09:01:05;5.70;99.90
9389;DHT22;4734;52.778;6.798;2022-12-05T09:03:52;5.70;99.90
9389;DHT22;4734;52.778;6.798;2022-12-05T09:06:39;5.70;99.90
9389;DHT22;4734;52.778;6.798;2022-12-05T09:09:26;5.70;99.90
9389;DHT22;4734;52.778;6.798;2022-12-05T09:12:12;5.70;99.90
9389;DHT22;4734;52.778;6.798;2022-12-05T09:14:59;5.70;99.90
9389;DHT22;4734;52.778;6.798;2022-12-05T09:17:46;5.70;99.90
9389;DHT22;4734;52.778;6.798;2022-12-05T09:20:32;5.70;99.90
9389;DHT22;4734;52.778;6.798;2022-12-05T09:23:18;5.70;99.90
9389;DHT22;4734;52.778;6.798;2022-12-05T09:26:04;5.70;99.90
9389;DHT22;4734;52.778;6.798;2022-12-05T09:28:51;5.70;99.90
9389;DHT22;4734;52.778;6.798;2022-12-05T09:31:37;5.70;99.90
9389;DHT22;4734;52.778;6.798;2022-12-05T09:34:27;5.70;99.90
9389;DHT22;4734;52.778;6.798;2022-12-05T09:37:14;5.80;99.90
9389;DHT22;4734;52.778;6.798;2022-12-05T09:40:02;5.70;99.90
9389;DHT22;4734;52.778;6.798;2022-12-05T09:43:00;5.80;99.90
9389;DHT22;4734;52.778;6.798;2022-12-05T09:45:54;5.70;99.90
9389;DHT22;4734;52.778;6.798;2022-12-05T09:48:43;5.80;99.90
9389;DHT22;4734;52.778;6.798;2022-12-05T09:51:31;5.80;99.90
9389;DHT22;4734;52.778;6.798;2022-12-05T09:54:17;5.80;99.90
9389;DHT22;4734;52.778;6.798;2022-12-05T09:57:04;5.80;99.90
9389;DHT22;4734;52.778;6.798;2022-12-05T09:59:50;5.80;99.90
9389;DHT22;4734;52.778;6.798;2022-12-05T10:02:43;5.80;99.90
9389;DHT22;4734;52.778;6.798;2022-12-05T10:05:36;5.80;99.90
9389;DHT22;4734;52.778;6.798;2022-12-05T10:08:31;5.80;99.90
9389;DHT22;4734;52.778;6.798;2022-12-05T10:11:21;5.80;99.90
9389;DHT22;4734;52.778;6.798;2022-12-05T10:14:11;5.80;99.90
9389;DHT22;4734;52.778;6.798;2022-12-05T10:17:03;5.80;99.90
9389;DHT22;4734;52.778;6.798;2022-12-05T10:19:51;5.80;99.90
9389;DHT22;4734;52.778;6.798;2022-12-05T10:22:46;5.80;99.90
9389;DHT22;4734;52.778;6.798;2022-12-05T10:25:36;5.80;99.90
9389;DHT22;4734;52.778;6.798;2022-12-05T10:28:29;5.80;99.90
9389;DHT22;4734;52.778;6.798;2022-12-05T10:31:20;5.80;99.90
9389;DHT22;4734;52.778;6.798;2022-12-05T10:34:14;5.80;99.90
9389;DHT22;4734;52.778;6.798;2022-12-05T10:37:08;5.80;99.90
9389;DHT22;4734;52.778;6.798;2022-12-05T10:39:55;5.90;99.90
9389;DHT22;4734;52.778;6.798;2022-12-05T10:42:44;5.80;99.90
9389;DHT22;4734;52.778;6.798;2022-12-05T10:45:31;5.80;99.90
9389;DHT22;4734;52.778;6.798;2022-12-05T10:48:18;5.80;99.90
9389;DHT22;4734;52.778;6.798;2022-12-05T10:51:06;5.90;99.90
9389;DHT22;4734;52.778;6.798;2022-12-05T10:53:52;5.90;99.90
9389;DHT22;4734;52.778;6.798;2022-12-05T10:56:40;5.90;99.90
9389;DHT22;4734;52.778;6.798;2022-12-05T10:59:44;5.90;99.90
9389;DHT22;4734;52.778;6.798;2022-12-05T11:02:32;5.90;99.90
9389;DHT22;4734;52.778;6.798;2022-12-05T11:05:28;5.90;99.90
9389;DHT22;4734;52.778;6.798;2022-12-05T11:08:22;5.90;99.90
9389;DHT22;4734;52.778;6.798;2022-12-05T11:11:21;5.90;99.90
9389;DHT22;4734;52.778;6.798;2022-12-05T11:14:20;5.90;99.90
9389;DHT22;4734;52.778;6.798;2022-12-05T11:17:22;5.90;99.90
9389;DHT22;4734;52.778;6.798;2022-12-05T11:20:36;5.90;99.90
9389;DHT22;4734;52.778;6.798;2022-12-05T11:23:25;5.90;99.90
9389;DHT22;4734;52.778;6.798;2022-12-05T11:26:31;5.90;99.90
9389;DHT22;4734;52.778;6.798;2022-12-05T11:29:30;5.90;99.90
9389;DHT22;4734;52.778;6.798;2022-12-05T11:32:20;5.90;99.90
9389;DHT22;4734;52.778;6.798;2022-12-05T11:35:23;5.90;99.90
9389;DHT22;4734;52.778;6.798;2022-12-05T11:38:11;5.90;99.90
9389;DHT22;4734;52.778;6.798;2022-12-05T11:41:08;5.90;99.90
9389;DHT22;4734;52.778;6.798;2022-12-05T11:44:09;6.00;99.90
9389;DHT22;4734;52.778;6.798;2022-12-05T11:47:05;5.90;99.90
9389;DHT22;4734;52.778;6.798;2022-12-05T11:50:10;5.90;99.90
9389;DHT22;4734;52.778;6.798;2022-12-05T11:56:21;5.90;99.90
9389;DHT22;4734;52.778;6.798;2022-12-05T11:59:26;5.90;99.90
9389;DHT22;4734;52.778;6.798;2022-12-05T12:02:24;5.90;99.90
9389;DHT22;4734;52.778;6.798;2022-12-05T12:05:17;5.90;99.90
9389;DHT22;4734;52.778;6.798;2022-12-05T12:08:15;5.90;99.90
9389;DHT22;4734;52.778;6.798;2022-12-05T12:11:08;5.90;99.90
9389;DHT22;4734;52.778;6.798;2022-12-05T12:14:02;5.90;99.90
9389;DHT22;4734;52.778;6.798;2022-12-05T12:17:01;5.90;99.90
9389;DHT22;4734;52.778;6.798;2022-12-05T12:23:15;5.90;99.90
9389;DHT22;4734;52.778;6.798;2022-12-05T12:26:09;5.90;99.90
9389;DHT22;4734;52.778;6.798;2022-12-05T12:29:02;5.90;99.90
9389;DHT22;4734;52.778;6.798;2022-12-05T12:32:01;5.90;99.90
9389;DHT22;4734;52.778;6.798;2022-12-05T12:35:18;6.00;99.90
9389;DHT22;4734;52.778;6.798;2022-12-05T12:41:37;6.00;99.90
9389;DHT22;4734;52.778;6.798;2022-12-05T12:44:52;5.90;99.90
9389;DHT22;4734;52.778;6.798;2022-12-05T12:47:53;6.00;99.90
9389;DHT22;4734;52.778;6.798;2022-12-05T12:50:44;6.00;99.90
9389;DHT22;4734;52.778;6.798;2022-12-05T12:57:05;6.00;99.90
9389;DHT22;4734;52.778;6.798;2022-12-05T13:00:04;5.90;99.90
9389;DHT22;4734;52.778;6.798;2022-12-05T13:03:01;6.00;99.90
9389;DHT22;4734;52.778;6.798;2022-12-05T13:05:51;5.90;99.90
9389;DHT22;4734;52.778;6.798;2022-12-05T13:08:41;6.00;99.90
9389;DHT22;4734;52.778;6.798;2022-12-05T13:11:29;6.00;99.90
9389;DHT22;4734;52.778;6.798;2022-12-05T13:14:22;6.00;99.90
9389;DHT22;4734;52.778;6.798;2022-12-05T13:17:13;6.00;99.90
9389;DHT22;4734;52.778;6.798;2022-12-05T13:20:00;6.00;99.90
9389;DHT22;4734;52.778;6.798;2022-12-05T13:22:48;6.00;99.90
9389;DHT22;4734;52.778;6.798;2022-12-05T13:25:36;6.00;99.90
9389;DHT22;4734;52.778;6.798;2022-12-05T13:28:29;6.00;99.90
9389;DHT22;4734;52.778;6.798;2022-12-05T13:31:18;6.00;99.90
9389;DHT22;4734;52.778;6.798;2022-12-05T13:34:04;6.00;99.90
9389;DHT22;4734;52.778;6.798;2022-12-05T13:36:50;6.00;99.90
9389;DHT22;4734;52.778;6.798;2022-12-05T13:39:55;6.00;99.90
9389;DHT22;4734;52.778;6.798;2022-12-05T13:43:01;6.00;99.90
9389;DHT22;4734;52.778;6.798;2022-12-05T13:46:00;6.00;99.90
9389;DHT22;4734;52.778;6.798;2022-12-05T13:48:48;6.00;99.90
9389;DHT22;4734;52.778;6.798;2022-12-05T13:51:36;6.00;99.90
9389;DHT22;4734;52.778;6.798;2022-12-05T13:54:27;6.00;99.90
9389;DHT22;4734;52.778;6.798;2022-12-05T13:57:46;6.00;99.90
9389;DHT22;4734;52.778;6.798;2022-12-05T14:00:34;6.00;99.90
9389;DHT22;4734;52.778;6.798;2022-12-05T14:03:55;6.00;99.90
9389;DHT22;4734;52.778;6.798;2022-12-05T14:06:57;6.00;99.90
9389;DHT22;4734;52.778;6.798;2022-12-05T14:09:53;6.00;99.90
9389;DHT22;4734;52.778;6.798;2022-12-05T14:13:01;6.00;99.90
9389;DHT22;4734;52.778;6.798;2022-12-05T14:15:49;6.00;99.90
9389;DHT22;4734;52.778;6.798;2022-12-05T14:18:45;6.00;99.90
9389;DHT22;4734;52.778;6.798;2022-12-05T14:21:41;6.00;99.90
9389;DHT22;4734;52.778;6.798;2022-12-05T14:24:33;6.00;99.90
9389;DHT22;4734;52.778;6.798;2022-12-05T14:27:31;6.00;99.90
9389;DHT22;4734;52.778;6.798;2022-12-05T14:30:31;6.00;99.90
9389;DHT22;4734;52.778;6.798;2022-12-05T14:33:22;6.00;99.90
9389;DHT22;4734;52.778;6.798;2022-12-05T14:36:14;6.00;99.90
9389;DHT22;4734;52.778;6.798;2022-12-05T14:39:20;6.00;99.90
9389;DHT22;4734;52.778;6.798;2022-12-05T14:42:24;6.00;99.90
9389;DHT22;4734;52.778;6.798;2022-12-05T14:45:27;6.00;99.90
9389;DHT22;4734;52.778;6.798;2022-12-05T14:48:26;6.00;99.90
9389;DHT22;4734;52.778;6.798;2022-12-05T14:51:42;6.00;99.90
9389;DHT22;4734;52.778;6.798;2022-12-05T14:54:31;6.00;99.90
9389;DHT22;4734;52.778;6.798;2022-12-05T14:57:18;6.00;99.90
9389;DHT22;4734;52.778;6.798;2022-12-05T15:00:13;6.00;99.90
9389;DHT22;4734;52.778;6.798;2022-12-05T15:03:02;6.00;99.90
9389;DHT22;4734;52.778;6.798;2022-12-05T15:05:49;6.00;99.90
9389;DHT22;4734;52.778;6.798;2022-12-05T15:08:43;6.00;99.90
9389;DHT22;4734;52.778;6.798;2022-12-05T15:11:33;6.00;99.90
9389;DHT22;4734;52.778;6.798;2022-12-05T15:14:24;6.00;99.90
9389;DHT22;4734;52.778;6.798;2022-12-05T15:17:15;6.00;99.90
9389;DHT22;4734;52.778;6.798;2022-12-05T15:20:05;6.00;99.90
9389;DHT22;4734;52.778;6.798;2022-12-05T15:22:52;6.00;99.90
9389;DHT22;4734;52.778;6.798;2022-12-05T15:25:38;6.00;99.90
9389;DHT22;4734;52.778;6.798;2022-12-05T15:28:26;6.00;99.90
9389;DHT22;4734;52.778;6.798;2022-12-05T15:31:12;6.00;99.90
9389;DHT22;4734;52.778;6.798;2022-12-05T15:34:05;6.00;99.90
9389;DHT22;4734;52.778;6.798;2022-12-05T15:37:02;6.00;99.90
9389;DHT22;4734;52.778;6.798;2022-12-05T15:39:52;6.00;99.90
9389;DHT22;4734;52.778;6.798;2022-12-05T15:42:42;6.00;99.90
9389;DHT22;4734;52.778;6.798;2022-12-05T15:45:31;6.00;99.90
9389;DHT22;4734;52.778;6.798;2022-12-05T15:48:17;6.00;99.90
9389;DHT22;4734;52.778;6.798;2022-12-05T15:51:03;6.00;99.90
9389;DHT22;4734;52.778;6.798;2022-12-05T15:53:51;6.00;99.90
9389;DHT22;4734;52.778;6.798;2022-12-05T15:56:38;6.00;99.90
9389;DHT22;4734;52.778;6.798;2022-12-05T15:59:31;6.00;99.90
9389;DHT22;4734;52.778;6.798;2022-12-05T16:02:22;5.90;99.90
9389;DHT22;4734;52.778;6.798;2022-12-05T16:05:21;5.90;99.90
9389;DHT22;4734;52.778;6.798;2022-12-05T16:08:11;5.90;99.90
9389;DHT22;4734;52.778;6.798;2022-12-05T16:11:06;5.90;99.90
9389;DHT22;4734;52.778;6.798;2022-12-05T16:13:55;6.00;99.90
9389;DHT22;4734;52.778;6.798;2022-12-05T16:16:42;6.00;99.90
9389;DHT22;4734;52.778;6.798;2022-12-05T16:19:30;5.90;99.90
9389;DHT22;4734;52.778;6.798;2022-12-05T16:22:21;5.90;99.90
9389;DHT22;4734;52.778;6.798;2022-12-05T16:25:13;5.90;99.90
9389;DHT22;4734;52.778;6.798;2022-12-05T16:28:02;5.90;99.90
9389;DHT22;4734;52.778;6.798;2022-12-05T16:30:59;5.90;99.90
9389;DHT22;4734;52.778;6.798;2022-12-05T16:33:46;5.90;99.90
9389;DHT22;4734;52.778;6.798;2022-12-05T16:36:33;5.90;99.90
9389;DHT22;4734;52.778;6.798;2022-12-05T16:39:20;5.90;99.90
9389;DHT22;4734;52.778;6.798;2022-12-05T16:42:21;5.90;99.90
9389;DHT22;4734;52.778;6.798;2022-12-05T16:45:39;5.90;99.90
9389;DHT22;4734;52.778;6.798;2022-12-05T16:48:26;5.90;99.90
9389;DHT22;4734;52.778;6.798;2022-12-05T16:51:17;5.90;99.90
9389;DHT22;4734;52.778;6.798;2022-12-05T16:54:07;5.90;99.90
9389;DHT22;4734;52.778;6.798;2022-12-05T16:56:53;5.90;99.90
9389;DHT22;4734;52.778;6.798;2022-12-05T16:59:40;5.90;99.90
9389;DHT22;4734;52.778;6.798;2022-12-05T17:02:27;5.90;99.90
9389;DHT22;4734;52.778;6.798;2022-12-05T17:05:14;5.90;99.90
9389;DHT22;4734;52.778;6.798;2022-12-05T17:08:00;5.90;99.90
9389;DHT22;4734;52.778;6.798;2022-12-05T17:10:47;5.90;99.90
9389;DHT22;4734;52.778;6.798;2022-12-05T17:13:33;5.90;99.90
9389;DHT22;4734;52.778;6.798;2022-12-05T17:16:26;5.90;99.90
9389;DHT22;4734;52.778;6.798;2022-12-05T17:19:13;5.90;99.90
9389;DHT22;4734;52.778;6.798;2022-12-05T17:21:59;5.90;99.90
9389;DHT22;4734;52.778;6.798;2022-12-05T17:24:45;5.90;99.90
9389;DHT22;4734;52.778;6.798;2022-12-05T17:27:32;5.90;99.90
9389;DHT22;4734;52.778;6.798;2022-12-05T17:30:18;5.90;99.90
9389;DHT22;4734;52.778;6.798;2022-12-05T17:33:05;5.90;99.90
9389;DHT22;4734;52.778;6.798;2022-12-05T17:35:51;5.80;99.90
9389;DHT22;4734;52.778;6.798;2022-12-05T17:38:37;5.90;99.90
9389;DHT22;4734;52.778;6.798;2022-12-05T17:41:23;5.90;99.90
9389;DHT22;4734;52.778;6.798;2022-12-05T17:44:12;5.90;99.90
9389;DHT22;4734;52.778;6.798;2022-12-05T17:46:58;5.90;99.90
9389;DHT22;4734;52.778;6.798;2022-12-05T17:49:44;5.90;99.90
9389;DHT22;4734;52.778;6.798;2022-12-05T17:52:30;5.90;99.90
9389;DHT22;4734;52.778;6.798;2022-12-05T17:55:18;5.90;99.90
9389;DHT22;4734;52.778;6.798;2022-12-05T17:58:03;5.80;99.90
9389;DHT22;4734;52.778;6.798;2022-12-05T18:00:51;5.90;99.90
9389;DHT22;4734;52.778;6.798;2022-12-05T18:03:37;5.90;99.90
9389;DHT22;4734;52.778;6.798;2022-12-05T18:06:22;5.80;99.90
9389;DHT22;4734;52.778;6.798;2022-12-05T18:09:10;5.90;99.90
9389;DHT22;4734;52.778;6.798;2022-12-05T18:11:56;5.90;99.90
9389;DHT22;4734;52.778;6.798;2022-12-05T18:14:42;5.90;99.90
9389;DHT22;4734;52.778;6.798;2022-12-05T18:17:29;5.90;99.90
9389;DHT22;4734;52.778;6.798;2022-12-05T18:20:16;5.80;99.90
9389;DHT22;4734;52.778;6.798;2022-12-05T18:23:02;5.80;99.90
9389;DHT22;4734;52.778;6.798;2022-12-05T18:25:58;5.90;99.90
9389;DHT22;4734;52.778;6.798;2022-12-05T18:28:45;5.80;99.90
9389;DHT22;4734;52.778;6.798;2022-12-05T18:31:31;5.80;99.90
9389;DHT22;4734;52.778;6.798;2022-12-05T18:34:20;5.90;99.90
9389;DHT22;4734;52.778;6.798;2022-12-05T18:37:06;5.90;99.90
9389;DHT22;4734;52.778;6.798;2022-12-05T18:39:52;5.80;99.90
9389;DHT22;4734;52.778;6.798;2022-12-05T18:42:37;5.80;99.90
9389;DHT22;4734;52.778;6.798;2022-12-05T18:45:22;5.90;99.90
9389;DHT22;4734;52.778;6.798;2022-12-05T18:48:08;5.90;99.90
9389;DHT22;4734;52.778;6.798;2022-12-05T18:51:05;5.80;99.90
9389;DHT22;4734;52.778;6.798;2022-12-05T18:53:52;5.80;99.90
9389;DHT22;4734;52.778;6.798;2022-12-05T18:56:40;5.90;99.90
9389;DHT22;4734;52.778;6.798;2022-12-05T18:59:27;5.80;99.90
9389;DHT22;4734;52.778;6.798;2022-12-05T19:02:14;5.90;99.90
9389;DHT22;4734;52.778;6.798;2022-12-05T19:04:59;5.80;99.90
9389;DHT22;4734;52.778;6.798;2022-12-05T19:07:47;5.90;99.90
9389;DHT22;4734;52.778;6.798;2022-12-05T19:10:35;5.90;99.90
9389;DHT22;4734;52.778;6.798;2022-12-05T19:13:21;5.90;99.90